Time;durP1;ratioP1;P1;durP2;ratioP2;P2;SDS_P1;SDS_P2;PMS_P1;PMS_P2;Temp;Humidity;BMP_temperature;BMP_pressure;BME280_temperature;BME280_humidity;BME280_pressure;Samples;Min_cycle;Max_cycle;Signal;HPM_P1;HPM_P2
2022/01/04 00:01:15;;;;;;;0.67;0.60;;;8.40;99.90;;;;;;4993965;28;20185;-68
2022/01/04 00:03:41;;;;;;;0.70;0.60;;;8.40;99.90;;;;;;4992570;28;20634;-71
2022/01/04 00:06:08;;;;;;;0.67;0.60;;;8.40;99.90;;;;;;4993585;28;20181;-69
2022/01/04 00:08:33;;;;;;;0.67;0.60;;;8.40;99.90;;;;;;4993204;28;20706;-68
2022/01/04 00:11:08;;;;;;;0.67;0.50;;;8.30;99.90;;;;;;4993447;28;20503;-70
2022/01/04 00:13:34;;;;;;;0.70;0.60;;;8.30;99.90;;;;;;4993674;28;20619;-69
2022/01/04 00:16:03;;;;;;;0.70;0.60;;;8.30;99.90;;;;;;5009301;28;20427;-69
2022/01/04 00:18:29;;;;;;;0.60;0.60;;;8.30;99.90;;;;;;4989719;28;20448;-70
2022/01/04 00:20:55;;;;;;;0.67;0.60;;;8.40;99.90;;;;;;4995852;28;20435;-70
2022/01/04 00:23:21;;;;;;;0.67;0.60;;;8.30;99.90;;;;;;4993623;28;20479;-69
2022/01/04 00:25:47;;;;;;;0.67;0.60;;;8.30;99.90;;;;;;4993069;28;20542;-70
2022/01/04 00:28:12;;;;;;;0.60;0.60;;;8.30;99.90;;;;;;4993452;28;20526;-70
2022/01/04 00:30:39;;;;;;;0.67;0.60;;;8.30;99.90;;;;;;4993146;28;20431;-71
2022/01/04 00:33:06;;;;;;;0.60;0.60;;;8.30;99.90;;;;;;4991941;28;20173;-70
2022/01/04 00:35:32;;;;;;;0.67;0.60;;;8.40;99.90;;;;;;4992902;28;20443;-71
2022/01/04 00:37:59;;;;;;;0.70;0.60;;;8.30;99.90;;;;;;4993265;28;20424;-71
2022/01/04 00:40:25;;;;;;;0.70;0.60;;;8.30;99.90;;;;;;4993343;28;20763;-70
2022/01/04 00:45:31;;;;;;;0.67;0.60;;;8.40;99.90;;;;;;5387014;23;20478;-70
2022/01/04 00:50:23;;;;;;;0.67;0.60;;;8.30;99.90;;;;;;4993206;28;20429;-69
2022/01/04 00:52:49;;;;;;;0.70;0.60;;;8.30;99.90;;;;;;4992946;28;20180;-69
2022/01/04 00:55:15;;;;;;;0.67;0.60;;;8.30;99.90;;;;;;4975496;28;20812;-69
2022/01/04 00:57:41;;;;;;;0.60;0.60;;;8.30;99.90;;;;;;4992726;28;20423;-69
2022/01/04 01:00:08;;;;;;;0.67;0.60;;;8.30;99.90;;;;;;4992215;28;20173;-70
2022/01/04 01:02:34;;;;;;;0.70;0.60;;;8.30;99.90;;;;;;4992789;28;20460;-70
2022/01/04 01:04:59;;;;;;;0.60;0.60;;;8.40;99.90;;;;;;4992879;28;20875;-70
2022/01/04 01:07:25;;;;;;;0.60;0.50;;;8.30;99.90;;;;;;4992732;28;20605;-70
2022/01/04 01:12:22;;;;;;;0.67;0.60;;;8.40;99.90;;;;;;4992679;28;20177;-70
2022/01/04 01:14:47;;;;;;;0.70;0.60;;;8.40;99.90;;;;;;4964455;28;20850;-70
2022/01/04 01:17:13;;;;;;;0.67;0.60;;;8.30;99.90;;;;;;4985171;28;20624;-70
2022/01/04 01:19:38;;;;;;;0.60;0.60;;;8.30;99.90;;;;;;4989275;28;20189;-70
2022/01/04 01:22:04;;;;;;;0.67;0.60;;;8.30;99.90;;;;;;4991506;28;20207;-70
2022/01/04 01:24:29;;;;;;;0.67;0.60;;;8.30;99.90;;;;;;4992092;28;20247;-70
2022/01/04 01:26:55;;;;;;;0.70;0.60;;;8.20;99.90;;;;;;4992747;28;20195;-70
2022/01/04 01:29:20;;;;;;;0.77;0.77;;;8.20;99.90;;;;;;4991925;28;20204;-70
2022/01/04 01:31:46;;;;;;;0.60;0.60;;;8.30;99.90;;;;;;4975822;28;20613;-71
2022/01/04 01:34:11;;;;;;;0.60;0.60;;;8.10;99.90;;;;;;4982336;28;20562;-71
2022/01/04 01:36:37;;;;;;;2.30;0.80;;;8.10;99.90;;;;;;4991928;28;20545;-69
2022/01/04 01:39:03;;;;;;;0.67;0.60;;;8.10;99.90;;;;;;4992304;28;20561;-69
2022/01/04 01:41:29;;;;;;;0.67;0.60;;;8.00;99.90;;;;;;4992444;28;20169;-69
2022/01/04 01:43:55;;;;;;;0.67;0.60;;;8.00;99.90;;;;;;4991462;28;20784;-70
2022/01/04 01:46:21;;;;;;;0.60;0.50;;;8.00;99.90;;;;;;4992007;28;20435;-69
2022/01/04 01:48:46;;;;;;;0.60;0.60;;;8.00;99.90;;;;;;4992332;28;20196;-70
2022/01/04 01:51:16;;;;;;;0.67;0.60;;;8.00;99.90;;;;;;4992023;28;20264;-69
2022/01/04 01:53:42;;;;;;;0.67;0.60;;;8.10;99.90;;;;;;4984389;28;20183;-70
2022/01/04 01:56:07;;;;;;;0.70;0.60;;;8.10;99.90;;;;;;4974840;28;20444;-69
2022/01/04 01:58:33;;;;;;;0.67;0.60;;;8.10;99.90;;;;;;4991196;28;20435;-69
2022/01/04 02:00:58;;;;;;;0.67;0.60;;;8.10;99.90;;;;;;4992195;28;20173;-69
2022/01/04 02:03:24;;;;;;;0.70;0.60;;;8.10;99.90;;;;;;4992204;28;20192;-69
2022/01/04 02:05:50;;;;;;;0.70;0.60;;;8.10;99.90;;;;;;4990667;28;20691;-69
2022/01/04 02:08:18;;;;;;;0.60;0.60;;;8.10;99.90;;;;;;4991963;28;20559;-69
2022/01/04 02:10:44;;;;;;;0.67;0.60;;;8.10;99.90;;;;;;4991961;28;20427;-69
2022/01/04 02:13:10;;;;;;;0.70;0.60;;;8.20;99.90;;;;;;4991603;28;20419;-70
2022/01/04 02:15:36;;;;;;;0.67;0.60;;;8.20;99.90;;;;;;4991676;28;20523;-70
2022/01/04 02:18:02;;;;;;;0.67;0.60;;;8.20;99.90;;;;;;4991830;28;20168;-70
2022/01/04 02:20:28;;;;;;;0.60;0.60;;;8.20;99.90;;;;;;4991980;28;20184;-71
2022/01/04 02:22:55;;;;;;;0.60;0.60;;;8.30;99.90;;;;;;4992198;28;20416;-70
2022/01/04 02:25:21;;;;;;;0.70;0.60;;;8.30;99.90;;;;;;4991125;28;20443;-70
2022/01/04 02:27:46;;;;;;;0.60;0.60;;;8.30;99.90;;;;;;4991940;28;20477;-71
2022/01/04 02:30:16;;;;;;;0.60;0.60;;;8.20;99.90;;;;;;4991749;28;20204;-70
2022/01/04 02:32:43;;;;;;;0.67;0.60;;;8.30;99.90;;;;;;4991643;28;20169;-70
2022/01/04 02:35:10;;;;;;;0.67;0.60;;;8.20;99.90;;;;;;4991924;28;20462;-70
2022/01/04 02:37:36;;;;;;;0.60;0.60;;;8.20;99.90;;;;;;4985836;28;20427;-70
2022/01/04 02:40:02;;;;;;;0.60;0.60;;;8.10;99.90;;;;;;4980997;28;20912;-70
2022/01/04 02:42:28;;;;;;;0.60;0.60;;;8.20;99.90;;;;;;4977283;28;20606;-70
2022/01/04 02:44:53;;;;;;;0.67;0.60;;;8.20;99.90;;;;;;4989483;28;20478;-70
2022/01/04 02:47:19;;;;;;;0.67;0.60;;;8.10;99.90;;;;;;4995071;28;20653;-70
2022/01/04 02:49:45;;;;;;;0.60;0.60;;;8.10;99.90;;;;;;4995101;28;20296;-70
2022/01/04 02:52:11;;;;;;;0.70;0.60;;;8.10;99.90;;;;;;4995240;28;20624;-70
2022/01/04 02:54:36;;;;;;;0.60;0.50;;;8.20;99.90;;;;;;4994684;28;20591;-70
2022/01/04 02:57:02;;;;;;;0.67;0.60;;;8.20;99.90;;;;;;4995127;28;20569;-70
2022/01/04 02:59:28;;;;;;;0.80;0.80;;;8.20;99.90;;;;;;4995331;28;20251;-70
2022/01/04 03:01:55;;;;;;;0.67;0.60;;;8.20;99.90;;;;;;4977793;28;20231;-70
2022/01/04 03:04:20;;;;;;;0.67;0.60;;;8.10;99.90;;;;;;4993415;28;20890;-70
2022/01/04 03:06:46;;;;;;;0.67;0.60;;;8.10;99.90;;;;;;4993418;28;20582;-70
2022/01/04 03:09:12;;;;;;;0.70;0.60;;;8.10;99.90;;;;;;4995093;28;20212;-70
2022/01/04 03:11:37;;;;;;;0.70;0.60;;;8.10;99.90;;;;;;4994690;28;20180;-70
2022/01/04 03:14:04;;;;;;;0.60;0.60;;;8.00;99.90;;;;;;4994639;28;20184;-70
2022/01/04 03:16:30;;;;;;;0.60;0.60;;;8.00;99.90;;;;;;4994561;28;20177;-70
2022/01/04 03:19:06;;;;;;;0.67;0.60;;;8.00;99.90;;;;;;4977036;28;20424;-70
2022/01/04 03:21:33;;;;;;;0.60;0.60;;;8.00;99.90;;;;;;4995120;28;20486;-70
2022/01/04 03:23:58;;;;;;;0.70;0.60;;;8.00;99.90;;;;;;4994171;28;20420;-70
2022/01/04 03:26:24;;;;;;;0.60;0.60;;;8.00;99.90;;;;;;4990100;28;20435;-70
2022/01/04 03:28:50;;;;;;;0.67;0.60;;;7.90;99.90;;;;;;4993004;28;20204;-70
2022/01/04 03:31:16;;;;;;;0.70;0.60;;;8.00;99.90;;;;;;4993898;28;20434;-71
2022/01/04 03:33:41;;;;;;;0.90;0.90;;;8.00;99.90;;;;;;4993965;28;20177;-70
2022/01/04 03:36:07;;;;;;;0.67;0.60;;;7.90;99.90;;;;;;4994376;28;20525;-70
2022/01/04 03:38:33;;;;;;;0.60;0.60;;;7.90;99.90;;;;;;4994411;28;20540;-71
2022/01/04 03:40:58;;;;;;;0.70;0.60;;;7.90;99.90;;;;;;4994490;28;20177;-70
2022/01/04 03:43:24;;;;;;;0.60;0.60;;;7.90;99.90;;;;;;4994260;28;20435;-70
2022/01/04 03:45:50;;;;;;;0.60;0.60;;;7.90;99.90;;;;;;4993387;28;20197;-70
2022/01/04 03:48:15;;;;;;;0.67;0.60;;;7.80;99.90;;;;;;4994318;28;20602;-70
2022/01/04 03:50:41;;;;;;;0.60;0.60;;;7.80;99.90;;;;;;4994514;28;20408;-71
2022/01/04 03:53:07;;;;;;;0.67;0.60;;;7.90;99.90;;;;;;4994149;28;20581;-70
2022/01/04 03:55:32;;;;;;;0.60;0.60;;;7.90;99.90;;;;;;4993042;28;20196;-70
2022/01/04 03:57:58;;;;;;;0.70;0.60;;;7.90;99.90;;;;;;4994134;28;20962;-70
2022/01/04 04:00:24;;;;;;;0.60;0.60;;;7.90;99.90;;;;;;4993214;28;20208;-70
2022/01/04 04:02:49;;;;;;;0.60;0.60;;;7.90;99.90;;;;;;4990459;28;20184;-70
2022/01/04 04:05:15;;;;;;;0.67;0.60;;;7.90;99.90;;;;;;4993620;28;20232;-70
2022/01/04 04:07:41;;;;;;;0.67;0.60;;;7.80;99.90;;;;;;4989668;28;20197;-70
2022/01/04 04:10:08;;;;;;;0.60;0.50;;;7.80;99.90;;;;;;4974560;28;20463;-70
2022/01/04 04:12:33;;;;;;;0.67;0.60;;;7.80;99.90;;;;;;4983922;28;20518;-70
2022/01/04 04:15:03;;;;;;;0.60;0.60;;;7.80;99.90;;;;;;4993130;28;21012;-70
2022/01/04 04:17:32;;;;;;;0.67;0.60;;;7.80;99.90;;;;;;4993922;28;20223;-70
2022/01/04 04:19:58;;;;;;;0.70;0.60;;;7.80;99.90;;;;;;4993827;28;20412;-70
2022/01/04 04:22:24;;;;;;;2.30;2.20;;;7.80;99.90;;;;;;4993271;28;20427;-70
2022/01/04 04:24:49;;;;;;;0.60;0.50;;;7.80;99.90;;;;;;4992967;28;20193;-70
2022/01/04 04:27:15;;;;;;;0.60;0.60;;;7.80;99.90;;;;;;4993087;28;20207;-70
2022/01/04 04:29:40;;;;;;;0.60;0.60;;;7.90;99.90;;;;;;4993553;28;20275;-70
2022/01/04 04:32:07;;;;;;;0.70;0.60;;;7.90;99.90;;;;;;4993533;28;20260;-70
2022/01/04 04:34:33;;;;;;;0.60;0.60;;;8.00;99.90;;;;;;4993008;28;20203;-70
2022/01/04 04:36:59;;;;;;;0.60;0.60;;;8.00;99.90;;;;;;4993238;28;20424;-70
2022/01/04 04:39:24;;;;;;;0.67;0.60;;;8.00;99.90;;;;;;4993211;28;20795;-70
2022/01/04 04:41:50;;;;;;;0.93;0.87;;;7.90;99.90;;;;;;4992972;28;20181;-70
2022/01/04 04:44:16;;;;;;;0.60;0.50;;;7.90;99.90;;;;;;4993224;28;20945;-70
2022/01/04 04:46:42;;;;;;;0.60;0.60;;;7.90;99.90;;;;;;4992234;28;20212;-70
2022/01/04 04:49:08;;;;;;;0.60;0.60;;;7.90;99.90;;;;;;4993204;28;20983;-70
2022/01/04 04:51:33;;;;;;;0.67;0.60;;;8.00;99.90;;;;;;4993460;28;20177;-70
2022/01/04 04:53:59;;;;;;;0.67;0.60;;;7.90;99.90;;;;;;4992532;28;20428;-70
2022/01/04 04:56:25;;;;;;;0.67;0.60;;;7.80;99.90;;;;;;4987253;28;20244;-71
2022/01/04 04:58:50;;;;;;;0.60;0.50;;;7.70;99.90;;;;;;4993276;28;20177;-70
2022/01/04 05:01:16;;;;;;;0.60;0.60;;;7.60;99.90;;;;;;4992462;28;20560;-70
2022/01/04 05:03:42;;;;;;;0.70;0.60;;;7.60;99.90;;;;;;4989216;28;20177;-70
2022/01/04 05:06:07;;;;;;;3.07;2.40;;;7.60;99.90;;;;;;4983510;28;20197;-70
2022/01/04 05:08:33;;;;;;;0.67;0.60;;;7.50;99.90;;;;;;4992257;28;20256;-70
2022/01/04 05:10:58;;;;;;;0.60;0.53;;;7.60;99.90;;;;;;4991972;28;20201;-70
2022/01/04 05:13:24;;;;;;;1.77;1.53;;;7.50;99.90;;;;;;4992081;28;20196;-71
2022/01/04 05:15:50;;;;;;;0.70;0.70;;;7.50;99.90;;;;;;4992283;28;20192;-71
2022/01/04 05:18:15;;;;;;;0.60;0.60;;;7.50;99.90;;;;;;4991747;28;20177;-70
2022/01/04 05:20:41;;;;;;;1.33;0.90;;;7.60;99.90;;;;;;4992285;28;20177;-70
2022/01/04 05:23:07;;;;;;;0.60;0.60;;;7.70;99.90;;;;;;4992183;28;20168;-71
2022/01/04 05:25:32;;;;;;;0.67;0.60;;;7.70;99.90;;;;;;4991928;28;20689;-69
2022/01/04 05:27:58;;;;;;;0.60;0.60;;;7.70;99.90;;;;;;4992495;28;20688;-69
2022/01/04 05:30:24;;;;;;;0.70;0.60;;;7.80;99.90;;;;;;4992099;28;20259;-69
2022/01/04 05:32:49;;;;;;;0.60;0.60;;;7.80;99.90;;;;;;4992101;28;20208;-69
2022/01/04 05:35:15;;;;;;;0.60;0.60;;;7.80;99.90;;;;;;4991966;28;20189;-70
2022/01/04 05:37:40;;;;;;;0.67;0.60;;;7.90;99.90;;;;;;4992517;28;20219;-70
2022/01/04 05:40:06;;;;;;;0.83;0.83;;;7.90;99.90;;;;;;4992619;28;20588;-70
2022/01/04 05:42:32;;;;;;;0.67;0.60;;;7.90;99.90;;;;;;4992615;28;20188;-70
2022/01/04 05:44:57;;;;;;;0.70;0.60;;;8.00;99.90;;;;;;4991190;28;20447;-72
2022/01/04 05:47:24;;;;;;;0.80;0.80;;;7.90;99.90;;;;;;4992468;28;20710;-71
2022/01/04 05:49:51;;;;;;;0.70;0.60;;;7.90;99.90;;;;;;4992527;28;20649;-70
2022/01/04 05:52:16;;;;;;;0.67;0.60;;;7.90;99.90;;;;;;4992310;28;20477;-70
2022/01/04 05:54:43;;;;;;;0.70;0.60;;;7.90;99.90;;;;;;4992786;28;20444;-70
2022/01/04 05:57:09;;;;;;;6.00;0.93;;;7.70;99.90;;;;;;4990032;28;20161;-71
2022/01/04 05:59:35;;;;;;;0.67;0.60;;;7.60;99.90;;;;;;4983354;28;20939;-70
2022/01/04 06:02:01;;;;;;;0.60;0.60;;;7.70;99.90;;;;;;4992113;28;20243;-70
2022/01/04 06:04:26;;;;;;;0.60;0.60;;;7.70;99.90;;;;;;4990845;28;20436;-71
2022/01/04 06:06:54;;;;;;;0.60;0.50;;;7.80;99.90;;;;;;4992002;28;20188;-69
2022/01/04 06:09:25;;;;;;;0.60;0.60;;;7.70;99.90;;;;;;4992069;28;20195;-70
2022/01/04 06:17:02;;;;;;;0.60;0.60;;;7.80;99.90;;;;;;4991811;28;20276;-70
2022/01/04 06:19:28;;;;;;;0.67;0.60;;;7.70;99.90;;;;;;4996124;28;20990;-70
2022/01/04 06:21:53;;;;;;;0.67;0.60;;;7.80;99.90;;;;;;4995868;28;20515;-70
2022/01/04 06:24:19;;;;;;;0.60;0.60;;;7.80;99.90;;;;;;4994987;28;20197;-70
2022/01/04 06:26:45;;;;;;;0.60;0.60;;;7.90;99.90;;;;;;4995439;28;20177;-70
2022/01/04 06:29:11;;;;;;;0.70;0.60;;;7.90;99.90;;;;;;4995637;28;20197;-70
2022/01/04 06:31:39;;;;;;;0.60;0.60;;;7.90;99.90;;;;;;4991414;28;20704;-70
2022/01/04 06:34:04;;;;;;;0.60;0.60;;;7.90;99.90;;;;;;4984022;28;20950;-70
2022/01/04 06:36:30;;;;;;;0.67;0.60;;;7.90;99.90;;;;;;4990844;28;20453;-71
2022/01/04 06:38:55;;;;;;;0.60;0.50;;;7.90;99.90;;;;;;4983012;28;20260;-70
2022/01/04 06:41:21;;;;;;;0.60;0.60;;;7.70;99.90;;;;;;4995833;28;20211;-71
2022/01/04 06:43:47;;;;;;;0.67;0.60;;;7.70;99.90;;;;;;4995854;28;20172;-69
2022/01/04 06:46:13;;;;;;;0.60;0.50;;;7.60;99.90;;;;;;4994846;28;20546;-71
2022/01/04 06:48:40;;;;;;;0.60;0.60;;;7.60;99.90;;;;;;4995129;28;20196;-71
2022/01/04 06:51:06;;;;;;;0.80;0.80;;;7.60;99.90;;;;;;4996028;28;20400;-70
2022/01/04 06:53:32;;;;;;;0.70;0.53;;;7.60;99.90;;;;;;4996151;28;20978;-70
2022/01/04 06:55:58;;;;;;;0.60;0.60;;;7.50;99.90;;;;;;4989044;28;20217;-70
2022/01/04 06:58:23;;;;;;;0.60;0.60;;;7.50;99.90;;;;;;4995347;28;20507;-70
2022/01/04 07:00:49;;;;;;;0.60;0.57;;;7.50;99.90;;;;;;4994941;28;20177;-70
2022/01/04 07:03:14;;;;;;;0.70;0.70;;;7.60;99.90;;;;;;4995627;28;20585;-70
2022/01/04 07:05:40;;;;;;;0.60;0.60;;;7.50;99.90;;;;;;4995297;28;20657;-70
2022/01/04 07:08:05;;;;;;;0.70;0.70;;;7.50;99.90;;;;;;4995910;28;20177;-71
2022/01/04 07:10:31;;;;;;;0.60;0.60;;;7.50;99.90;;;;;;4996469;28;20560;-71
2022/01/04 07:12:56;;;;;;;0.60;0.60;;;7.50;99.90;;;;;;4987277;28;20177;-71
2022/01/04 07:15:22;;;;;;;0.60;0.60;;;7.50;99.90;;;;;;4994516;28;20362;-72
2022/01/04 07:17:47;;;;;;;0.60;0.60;;;7.50;99.90;;;;;;4994640;28;20562;-71
2022/01/04 07:20:13;;;;;;;0.60;0.60;;;7.50;99.90;;;;;;4994887;28;20541;-71
2022/01/04 07:22:39;;;;;;;0.60;0.57;;;7.50;99.90;;;;;;4995084;28;20248;-72
2022/01/04 07:25:06;;;;;;;0.90;0.80;;;7.60;99.90;;;;;;4994159;28;20189;-71
2022/01/04 07:27:32;;;;;;;0.60;0.60;;;7.60;99.90;;;;;;4994107;28;20424;-71
2022/01/04 07:29:58;;;;;;;1.00;0.83;;;7.60;99.90;;;;;;4994339;28;20463;-71
2022/01/04 07:32:24;;;;;;;0.60;0.60;;;7.70;99.90;;;;;;4977384;28;20404;-70
2022/01/04 07:34:49;;;;;;;0.60;0.60;;;7.80;99.90;;;;;;4994063;28;20255;-71
2022/01/04 07:37:15;;;;;;;0.80;0.80;;;7.80;99.90;;;;;;4994375;28;20508;-70
2022/01/04 07:39:40;;;;;;;0.60;0.60;;;7.90;99.90;;;;;;4993862;28;20223;-71
2022/01/04 07:42:06;;;;;;;0.70;0.60;;;7.90;99.90;;;;;;4994765;28;20247;-71
2022/01/04 07:44:32;;;;;;;0.60;0.60;;;7.90;99.90;;;;;;4979082;28;20233;-71
2022/01/04 07:46:58;;;;;;;0.60;0.60;;;8.00;99.90;;;;;;4993001;28;20470;-70
2022/01/04 07:49:23;;;;;;;0.80;0.80;;;7.90;99.90;;;;;;4994410;28;20479;-70
2022/01/04 07:51:49;;;;;;;0.60;0.60;;;7.90;99.90;;;;;;4989807;28;20225;-70
2022/01/04 07:54:15;;;;;;;0.60;0.60;;;7.80;99.90;;;;;;4994255;28;20204;-70
2022/01/04 07:56:40;;;;;;;0.60;0.60;;;7.80;99.90;;;;;;4994625;28;20173;-71
2022/01/04 07:59:06;;;;;;;0.60;0.60;;;7.80;99.90;;;;;;4994736;28;20183;-71
2022/01/04 08:01:31;;;;;;;0.67;0.60;;;7.80;99.90;;;;;;4994217;28;20630;-71
2022/01/04 08:03:59;;;;;;;1.50;1.07;;;7.80;99.90;;;;;;4992621;28;20626;-71
2022/01/04 08:06:24;;;;;;;0.60;0.60;;;7.80;99.90;;;;;;4993641;28;20603;-70
2022/01/04 08:08:50;;;;;;;0.60;0.60;;;7.90;99.90;;;;;;4986807;28;20502;-70
2022/01/04 08:11:15;;;;;;;0.60;0.60;;;7.90;99.90;;;;;;4992934;28;20173;-70
2022/01/04 08:13:41;;;;;;;0.60;0.60;;;7.90;99.90;;;;;;4993139;28;20223;-71
2022/01/04 08:16:07;;;;;;;3.80;0.93;;;7.90;99.90;;;;;;4993723;28;20189;-70
2022/01/04 08:18:32;;;;;;;5.23;1.83;;;7.90;99.90;;;;;;4976811;28;20184;-70
2022/01/04 08:20:58;;;;;;;1.00;1.00;;;7.80;99.90;;;;;;4994313;28;20169;-70
2022/01/04 08:23:27;;;;;;;0.60;0.60;;;7.70;99.90;;;;;;4992367;28;20240;-70
2022/01/04 08:25:53;;;;;;;0.63;0.63;;;7.70;99.90;;;;;;4990209;28;20274;-70
2022/01/04 08:28:18;;;;;;;0.60;0.60;;;7.70;99.90;;;;;;4979095;28;20941;-70
2022/01/04 08:30:44;;;;;;;1.27;1.17;;;7.70;99.90;;;;;;4992789;28;20181;-71
2022/01/04 08:33:10;;;;;;;1.00;1.00;;;7.70;99.90;;;;;;4993558;28;20672;-70
2022/01/04 08:35:38;;;;;;;1.93;1.83;;;7.70;99.90;;;;;;4992793;28;20199;-71
2022/01/04 08:38:06;;;;;;;0.60;0.60;;;7.70;99.90;;;;;;4989941;28;20416;-70
2022/01/04 08:40:32;;;;;;;0.60;0.60;;;7.70;99.90;;;;;;4974474;28;20436;-69
2022/01/04 08:42:57;;;;;;;1.30;0.90;;;7.70;99.90;;;;;;4969524;28;20432;-69
2022/01/04 08:45:24;;;;;;;0.60;0.57;;;7.70;99.90;;;;;;4993293;28;20530;-70
2022/01/04 08:47:51;;;;;;;0.60;0.53;;;7.70;99.90;;;;;;4993406;28;20616;-70
2022/01/04 08:50:18;;;;;;;0.70;0.70;;;7.90;99.90;;;;;;4994439;28;20466;-69
2022/01/04 08:52:44;;;;;;;0.70;0.70;;;7.90;99.90;;;;;;4975199;28;20416;-69
2022/01/04 08:55:11;;;;;;;0.70;0.53;;;7.90;99.90;;;;;;4992644;28;20451;-70
2022/01/04 08:57:37;;;;;;;0.70;0.63;;;7.90;99.90;;;;;;4992894;28;21138;-70
2022/01/04 09:00:07;;;;;;;1.37;1.27;;;8.00;99.90;;;;;;4993672;28;20497;-70
2022/01/04 09:02:34;;;;;;;0.60;0.60;;;8.10;99.90;;;;;;4994573;28;20424;-70
2022/01/04 09:05:00;;;;;;;0.60;0.60;;;8.10;99.90;;;;;;4989518;28;21022;-70
2022/01/04 09:07:26;;;;;;;0.60;0.60;;;8.00;99.90;;;;;;4984646;28;20433;-70
2022/01/04 09:09:52;;;;;;;0.70;0.60;;;8.00;99.90;;;;;;4992049;28;20464;-70
2022/01/04 09:12:20;;;;;;;2.67;2.57;;;8.00;99.90;;;;;;4992815;28;20431;-70
2022/01/04 09:14:59;;;;;;;0.60;0.60;;;8.10;99.90;;;;;;4989554;28;20547;-70
2022/01/04 09:20:11;;;;;;;0.73;0.73;;;8.20;99.90;;;;;;4993342;28;21158;-70
2022/01/04 09:22:37;;;;;;;7.00;1.47;;;8.30;99.90;;;;;;4992206;28;20507;-70
2022/01/04 09:25:04;;;;;;;0.70;0.67;;;8.30;99.90;;;;;;4992474;28;20816;-70
2022/01/04 09:27:30;;;;;;;0.60;0.60;;;8.40;99.90;;;;;;4993551;28;20428;-70
2022/01/04 09:29:56;;;;;;;0.77;0.77;;;8.50;99.90;;;;;;4993604;28;20463;-70
2022/01/04 09:32:22;;;;;;;0.70;0.60;;;8.50;99.90;;;;;;4992787;28;20427;-71
2022/01/04 09:34:48;;;;;;;0.70;0.60;;;8.60;99.90;;;;;;4992195;28;20448;-70
2022/01/04 09:37:14;;;;;;;0.70;0.60;;;8.60;99.90;;;;;;4986847;28;20419;-70
2022/01/04 09:39:40;;;;;;;0.60;0.60;;;8.40;99.90;;;;;;4973375;28;20445;-70
2022/01/04 09:42:09;;;;;;;0.80;0.80;;;8.40;99.90;;;;;;4984949;28;20539;-70
2022/01/04 09:44:35;;;;;;;0.70;0.70;;;8.50;99.90;;;;;;4992093;28;20447;-70
2022/01/04 09:47:03;;;;;;;0.67;0.60;;;8.40;99.90;;;;;;4991494;28;20490;-69
2022/01/04 09:49:29;;;;;;;1.33;1.23;;;8.40;99.90;;;;;;4991937;28;20498;-70
2022/01/04 09:51:56;;;;;;;0.60;0.60;;;8.40;99.90;;;;;;4992968;28;20919;-69
2022/01/04 09:54:23;;;;;;;0.60;0.60;;;8.50;99.90;;;;;;4996322;28;20820;-71
2022/01/04 09:56:50;;;;;;;1.23;1.13;;;8.50;99.90;;;;;;4996335;28;20446;-70
2022/01/04 09:59:17;;;;;;;0.83;0.83;;;8.40;99.90;;;;;;4995948;28;20831;-70
2022/01/04 10:01:45;;;;;;;0.60;0.60;;;8.50;99.90;;;;;;4995910;28;20458;-71
2022/01/04 10:04:11;;;;;;;3.63;1.13;;;8.60;99.90;;;;;;4995979;28;20482;-71
2022/01/04 10:06:39;;;;;;;0.80;0.80;;;8.60;99.90;;;;;;4993082;28;20516;-70
2022/01/04 10:09:08;;;;;;;0.60;0.60;;;8.70;99.90;;;;;;4992222;28;20464;-71
2022/01/04 10:11:43;;;;;;;1.10;1.10;;;8.60;99.90;;;;;;4996799;28;20417;-71
2022/01/04 10:14:32;;;;;;;0.60;0.60;;;8.50;99.90;;;;;;4996546;28;20481;-71
2022/01/04 10:17:10;;;;;;;0.67;0.60;;;8.60;99.90;;;;;;4980806;28;20412;-70
2022/01/04 10:19:41;;;;;;;3.93;2.50;;;8.60;99.90;;;;;;4994542;28;20428;-70
2022/01/04 10:22:24;;;;;;;0.93;0.93;;;8.60;99.90;;;;;;4991566;28;20548;-71
2022/01/04 10:25:09;;;;;;;0.60;0.60;;;8.60;99.90;;;;;;4990244;28;20463;-69
2022/01/04 10:27:49;;;;;;;0.67;0.60;;;8.60;99.90;;;;;;4976819;28;20424;-70
2022/01/04 10:30:28;;;;;;;0.67;0.60;;;8.60;99.90;;;;;;4978976;28;20982;-69
2022/01/04 10:33:11;;;;;;;0.83;0.83;;;8.60;99.90;;;;;;4994177;28;20435;-69
2022/01/04 10:35:40;;;;;;;0.60;0.60;;;8.50;99.90;;;;;;4995369;28;20506;-70
2022/01/04 10:38:17;;;;;;;0.70;0.70;;;8.50;99.90;;;;;;4995040;28;20455;-69
2022/01/04 10:41:05;;;;;;;0.60;0.60;;;8.60;99.90;;;;;;4994969;28;20795;-69
2022/01/04 10:43:44;;;;;;;0.60;0.53;;;8.60;99.90;;;;;;4994976;28;20419;-69
2022/01/04 10:46:13;;;;;;;0.60;0.60;;;8.50;99.90;;;;;;4995368;28;20426;-70
2022/01/04 10:48:44;;;;;;;0.67;0.60;;;8.50;99.90;;;;;;4977783;28;20938;-70
2022/01/04 10:51:16;;;;;;;0.67;0.60;;;8.40;99.90;;;;;;4994498;28;20510;-69
2022/01/04 10:53:47;;;;;;;0.77;0.77;;;8.40;99.90;;;;;;4994923;28;20434;-70
2022/01/04 10:56:15;;;;;;;0.60;0.50;;;8.40;99.90;;;;;;4993994;28;20443;-71
2022/01/04 10:58:47;;;;;;;0.67;0.60;;;8.40;99.90;;;;;;4996072;28;20412;-70
2022/01/04 11:01:16;;;;;;;0.70;0.63;;;8.40;99.90;;;;;;4977757;28;20440;-69
2022/01/04 11:03:47;;;;;;;0.70;0.60;;;8.30;99.90;;;;;;4995399;28;20412;-69
2022/01/04 11:06:23;;;;;;;2.37;2.20;;;8.40;99.90;;;;;;4988604;28;20444;-69
2022/01/04 11:08:49;;;;;;;0.60;0.60;;;8.30;99.90;;;;;;4983400;28;20455;-69
2022/01/04 11:11:15;;;;;;;0.60;0.60;;;8.30;99.90;;;;;;4993902;28;20436;-69
2022/01/04 11:13:40;;;;;;;0.67;0.60;;;8.20;99.90;;;;;;4961373;28;20590;-69
2022/01/04 11:16:07;;;;;;;0.60;0.53;;;8.20;99.90;;;;;;4987619;28;20194;-69
2022/01/04 11:18:33;;;;;;;0.73;0.73;;;8.10;99.90;;;;;;4997085;28;20624;-71
2022/01/04 11:21:00;;;;;;;0.60;0.60;;;8.10;99.90;;;;;;4995102;28;20456;-69
2022/01/04 11:23:28;;;;;;;0.60;0.60;;;8.10;99.90;;;;;;4994051;28;20459;-69
2022/01/04 11:25:55;;;;;;;0.60;0.60;;;8.10;99.90;;;;;;4994112;28;20444;-70
2022/01/04 11:28:21;;;;;;;0.60;0.57;;;8.20;99.90;;;;;;4994601;28;20467;-70
2022/01/04 11:31:11;;;;;;;0.60;0.57;;;8.20;99.90;;;;;;4994525;28;20420;-70
2022/01/04 11:33:50;;;;;;;0.60;0.60;;;8.20;99.90;;;;;;4986311;28;20428;-70
2022/01/04 11:36:18;;;;;;;0.60;0.60;;;8.20;99.90;;;;;;4993987;28;20448;-70
2022/01/04 11:38:44;;;;;;;0.60;0.53;;;8.20;99.90;;;;;;4994505;28;20507;-71
2022/01/04 11:41:23;;;;;;;1.37;0.80;;;8.20;99.90;;;;;;4994526;28;20913;-71
2022/01/04 11:43:49;;;;;;;0.60;0.60;;;8.20;99.90;;;;;;4981295;28;20169;-69
2022/01/04 11:46:36;;;;;;;0.77;0.77;;;8.20;99.90;;;;;;4975710;28;20448;-70
2022/01/04 11:49:12;;;;;;;0.60;0.60;;;8.30;99.90;;;;;;4993420;28;20455;-70
2022/01/04 11:51:43;;;;;;;0.60;0.60;;;8.30;99.90;;;;;;4975857;28;20405;-70
2022/01/04 11:54:18;;;;;;;0.70;0.70;;;8.30;99.90;;;;;;4992189;28;20415;-71
2022/01/04 11:56:53;;;;;;;1.17;1.07;;;8.30;99.90;;;;;;4990419;28;20439;-70
2022/01/04 11:59:31;;;;;;;0.60;0.60;;;8.40;99.90;;;;;;4993790;28;20760;-70
2022/01/04 12:01:57;;;;;;;0.60;0.60;;;8.40;99.90;;;;;;4995317;28;20420;-71
2022/01/04 12:04:51;;;;;;;0.60;0.60;;;8.40;99.90;;;;;;4995059;28;20459;-70
2022/01/04 12:07:39;;;;;;;0.60;0.50;;;8.60;99.90;;;;;;4993872;28;20260;-69
2022/01/04 12:10:19;;;;;;;0.70;0.70;;;8.60;99.90;;;;;;4974713;28;20465;-69
2022/01/04 12:13:05;;;;;;;0.60;0.60;;;8.60;99.90;;;;;;4989071;28;20482;-68
2022/01/04 12:15:34;;;;;;;0.60;0.60;;;8.60;99.90;;;;;;4981672;28;20957;-70
2022/01/04 12:18:29;;;;;;;0.60;0.53;;;8.60;99.90;;;;;;4992531;28;20503;-70
2022/01/04 12:20:57;;;;;;;0.60;0.60;;;8.50;99.90;;;;;;4993846;28;20531;-70
2022/01/04 12:23:23;;;;;;;1.87;1.77;;;8.50;99.90;;;;;;4993561;28;20427;-71
2022/01/04 12:26:11;;;;;;;0.60;0.60;;;8.50;99.90;;;;;;4992165;28;20439;-71
2022/01/04 12:29:05;;;;;;;0.60;0.60;;;8.50;99.90;;;;;;4992962;28;20169;-69
2022/01/04 12:31:43;;;;;;;0.80;0.80;;;8.50;99.90;;;;;;4992960;28;20478;-69
2022/01/04 12:34:27;;;;;;;0.60;0.60;;;8.40;99.90;;;;;;4993163;28;20443;-70
2022/01/04 12:36:52;;;;;;;0.60;0.60;;;8.40;99.90;;;;;;4993115;28;20413;-69
2022/01/04 12:39:21;;;;;;;1.07;0.97;;;8.50;99.90;;;;;;4992528;28;20416;-70
2022/01/04 12:41:51;;;;;;;0.90;0.80;;;8.50;99.90;;;;;;4993199;28;20177;-70
2022/01/04 12:44:25;;;;;;;0.70;0.70;;;8.50;99.90;;;;;;4992999;28;20777;-70
2022/01/04 12:46:52;;;;;;;1.53;1.43;;;8.50;99.90;;;;;;4993435;28;20432;-70
2022/01/04 12:49:20;;;;;;;1.27;0.87;;;8.60;99.90;;;;;;4993067;28;20462;-70
2022/01/04 12:51:54;;;;;;;0.60;0.60;;;8.70;99.90;;;;;;4993784;28;20412;-71
2022/01/04 12:54:21;;;;;;;1.63;1.27;;;8.70;99.90;;;;;;4992875;28;20499;-71
2022/01/04 12:57:01;;;;;;;1.23;1.23;;;8.80;99.90;;;;;;4992891;28;20778;-70
2022/01/04 12:59:27;;;;;;;0.70;0.70;;;8.80;99.90;;;;;;4992923;28;20420;-70
2022/01/04 13:01:58;;;;;;;2.30;2.10;;;8.80;99.90;;;;;;4988976;28;20825;-70
2022/01/04 13:04:27;;;;;;;0.70;0.70;;;8.90;99.90;;;;;;4992609;28;20185;-71
2022/01/04 13:06:54;;;;;;;1.20;1.10;;;8.90;99.90;;;;;;4992193;28;20478;-71
2022/01/04 13:09:21;;;;;;;1.10;1.10;;;8.90;99.90;;;;;;4992301;28;20479;-70
2022/01/04 13:11:51;;;;;;;1.67;1.57;;;9.00;99.90;;;;;;4993646;28;20900;-70
2022/01/04 13:14:36;;;;;;;1.23;1.07;;;9.00;99.90;;;;;;4993598;28;20444;-69
2022/01/04 13:17:10;;;;;;;0.70;0.70;;;9.00;99.90;;;;;;4992916;28;20885;-69